createdAt,value
2019-05-14T00:02:12.261Z,92.70
2019-05-14T00:04:42.317Z,93.90
2019-05-14T00:07:11.613Z,92.90
2019-05-14T00:09:41.378Z,91.40
2019-05-14T00:12:11.353Z,92.40
2019-05-14T00:14:43.317Z,91.30
2019-05-14T00:17:11.301Z,90.80
2019-05-14T00:19:44.944Z,90.40
2019-05-14T00:22:13.369Z,90.90
2019-05-14T00:24:41.973Z,90.10
2019-05-14T00:27:11.628Z,88.80
2019-05-14T00:29:41.797Z,89.90
2019-05-14T00:32:11.219Z,88.30
2019-05-14T00:34:42.159Z,93.10
2019-05-14T00:37:11.530Z,91.10
2019-05-14T00:39:41.701Z,90.60
2019-05-14T00:42:12.234Z,92.50
2019-05-14T00:44:53.786Z,94.10
2019-05-14T00:47:11.174Z,95.00
2019-05-14T00:49:42.273Z,91.30
2019-05-14T00:52:11.722Z,93.40
2019-05-14T00:54:41.691Z,94.60
2019-05-14T00:57:11.964Z,91.60
2019-05-14T00:59:41.736Z,92.20
2019-05-14T01:02:11.414Z,91.50
2019-05-14T01:04:42.584Z,93.60
2019-05-14T01:07:11.960Z,91.90
2019-05-14T01:09:42.168Z,92.30
2019-05-14T01:12:12.259Z,91.00
2019-05-14T01:14:42.330Z,91.40
2019-05-14T01:17:11.377Z,90.60
2019-05-14T01:19:42.201Z,93.30
2019-05-14T01:22:12.256Z,93.50
2019-05-14T01:24:41.690Z,91.10
2019-05-14T01:27:12.492Z,91.90
2019-05-14T01:29:42.527Z,89.30
2019-05-14T01:32:11.709Z,87.80
2019-05-14T01:34:42.000Z,85.30
2019-05-14T01:37:11.698Z,86.40
2019-05-14T01:39:41.735Z,85.00
2019-05-14T01:42:12.479Z,88.10
2019-05-14T01:44:41.433Z,84.20
2019-05-14T01:47:12.385Z,88.10
2019-05-14T01:49:42.497Z,85.10
2019-05-14T01:52:11.228Z,88.80
2019-05-14T01:54:42.439Z,90.10
2019-05-14T01:57:11.538Z,90.10
2019-05-14T01:59:42.619Z,92.10
2019-05-14T02:02:11.546Z,94.80
2019-05-14T02:04:42.750Z,96.60
2019-05-14T02:07:11.620Z,96.90
2019-05-14T02:09:41.951Z,96.80
2019-05-14T02:12:11.745Z,88.60
2019-05-14T02:14:42.415Z,93.20
2019-05-14T02:17:12.408Z,90.40
2019-05-14T02:19:42.533Z,94.90
2019-05-14T02:22:11.457Z,92.20
2019-05-14T02:24:41.784Z,92.80
2019-05-14T02:27:12.264Z,95.60
2019-05-14T02:29:41.586Z,96.40
2019-05-14T02:32:10.903Z,94.40
2019-05-14T02:34:40.221Z,95.80
2019-05-14T02:37:09.409Z,94.90
2019-05-14T02:39:40.549Z,93.70
2019-05-14T02:42:09.545Z,94.90
2019-05-14T02:44:40.836Z,94.70
2019-05-14T02:47:09.973Z,94.70
2019-05-14T02:49:39.704Z,93.20
2019-05-14T02:52:10.027Z,91.40
2019-05-14T02:54:40.473Z,92.90
2019-05-14T02:57:10.343Z,93.10
2019-05-14T02:59:39.710Z,93.80
2019-05-14T03:02:09.927Z,93.50
2019-05-14T03:04:39.426Z,93.50
2019-05-14T03:07:10.906Z,94.50
2019-05-14T03:09:40.350Z,94.60
2019-05-14T03:12:10.280Z,94.90
2019-05-14T03:14:39.843Z,95.20
2019-05-14T03:17:10.540Z,96.00
2019-05-14T03:19:40.745Z,97.80
2019-05-14T03:22:10.155Z,97.10
2019-05-14T03:24:39.886Z,95.20
2019-05-14T03:27:09.593Z,94.60
2019-05-14T03:29:39.835Z,94.60
2019-05-14T03:32:12.886Z,93.70
2019-05-14T03:34:42.983Z,93.40
2019-05-14T03:37:12.904Z,92.80
2019-05-14T03:39:40.692Z,92.50
2019-05-14T03:42:09.758Z,92.30
2019-05-14T03:44:39.854Z,92.80
2019-05-14T03:47:10.144Z,93.00
2019-05-14T03:49:39.672Z,91.80
2019-05-14T03:52:09.561Z,91.70
2019-05-14T03:54:40.643Z,93.20
2019-05-14T03:57:09.751Z,93.20
2019-05-14T03:59:40.181Z,94.30
2019-05-14T04:02:10.453Z,94.50
2019-05-14T04:04:39.514Z,94.70
2019-05-14T04:07:09.973Z,95.30
2019-05-14T04:09:40.283Z,95.20
2019-05-14T04:12:11.931Z,94.60
2019-05-14T04:14:42.970Z,93.30
2019-05-14T04:17:15.540Z,94.40
2019-05-14T04:19:45.387Z,94.70
2019-05-14T04:22:14.315Z,94.00
2019-05-14T04:24:43.580Z,94.40
2019-05-14T04:27:14.046Z,91.60
2019-05-14T04:29:42.613Z,91.60
2019-05-14T04:32:11.359Z,91.60
2019-05-14T04:34:40.317Z,92.20
2019-05-14T04:37:10.046Z,91.90
2019-05-14T04:39:39.546Z,91.90
2019-05-14T04:42:09.568Z,92.90
2019-05-14T04:44:40.315Z,92.70
2019-05-14T04:47:22.774Z,92.50
2019-05-14T04:49:39.859Z,92.30
2019-05-14T04:52:09.995Z,90.40
2019-05-14T04:54:39.601Z,91.60
2019-05-14T04:57:10.226Z,91.30
2019-05-14T04:59:39.642Z,91.70
2019-05-14T05:02:09.703Z,90.70
2019-05-14T05:04:41.167Z,90.80
2019-05-14T05:07:09.938Z,90.00
2019-05-14T05:09:39.798Z,90.70
2019-05-14T05:12:09.249Z,91.10
2019-05-14T05:14:38.871Z,90.40
2019-05-14T05:17:09.181Z,90.30
2019-05-14T05:19:39.854Z,90.30
2019-05-14T05:22:08.184Z,90.50
2019-05-14T05:24:38.122Z,90.50
2019-05-14T05:27:09.105Z,89.90
2019-05-14T05:29:39.018Z,89.70
2019-05-14T05:32:08.671Z,89.60
2019-05-14T05:34:38.805Z,89.80
2019-05-14T05:37:08.649Z,90.10
2019-05-14T05:39:38.558Z,90.00
2019-05-14T05:42:09.281Z,90.10
2019-05-14T05:44:39.375Z,89.50
2019-05-14T05:47:09.215Z,89.60
2019-05-14T05:49:38.253Z,90.10
2019-05-14T05:52:08.593Z,89.10
2019-05-14T05:54:38.424Z,88.30
2019-05-14T05:57:09.285Z,87.00
2019-05-14T05:59:39.298Z,86.40
2019-05-14T06:02:09.374Z,89.20
2019-05-14T06:04:39.386Z,88.80
2019-05-14T06:07:08.828Z,88.80
2019-05-14T06:09:38.105Z,86.90
2019-05-14T06:12:08.673Z,84.30
2019-05-14T06:14:38.288Z,82.50
2019-05-14T06:17:08.812Z,83.90
2019-05-14T06:19:38.248Z,82.00
2019-05-14T06:22:09.562Z,84.70
2019-05-14T06:24:38.949Z,88.30
2019-05-14T06:27:09.312Z,89.40
2019-05-14T06:29:43.344Z,85.90
2019-05-14T06:32:11.762Z,90.10
2019-05-14T06:34:40.201Z,90.40
2019-05-14T06:37:08.640Z,90.50
2019-05-14T06:39:39.111Z,90.80
2019-05-14T06:42:08.816Z,90.30
2019-05-14T06:44:38.542Z,91.00
2019-05-14T06:47:09.319Z,91.30
2019-05-14T06:49:38.511Z,90.70
2019-05-14T06:52:08.660Z,91.20
2019-05-14T06:54:38.656Z,88.70
2019-05-14T06:57:08.878Z,88.50
2019-05-14T06:59:38.095Z,87.30
2019-05-14T07:02:08.777Z,77.70
2019-05-14T07:04:39.257Z,72.70
2019-05-14T07:07:08.464Z,65.10
2019-05-14T07:09:38.410Z,65.50
2019-05-14T07:12:09.153Z,68.40
2019-05-14T07:14:38.890Z,65.20
2019-05-14T07:17:09.093Z,62.40
2019-05-14T07:19:38.557Z,60.30
2019-05-14T07:22:09.011Z,59.80
2019-05-14T07:24:40.428Z,57.40
2019-05-14T07:27:09.452Z,56.30
2019-05-14T07:29:38.772Z,54.30
2019-05-14T07:32:09.061Z,54.40
2019-05-14T07:34:38.818Z,54.10
2019-05-14T07:37:09.348Z,54.50
2019-05-14T07:39:38.580Z,56.00
2019-05-14T07:42:09.775Z,54.10
2019-05-14T07:44:39.113Z,54.00
2019-05-14T07:47:08.345Z,53.20
2019-05-14T07:49:38.576Z,51.10
2019-05-14T07:52:09.240Z,51.60
2019-05-14T07:54:38.905Z,53.70
2019-05-14T07:57:08.801Z,51.10
2019-05-14T07:59:38.100Z,51.60
2019-05-14T08:02:09.113Z,51.40
2019-05-14T08:04:38.061Z,51.80
2019-05-14T08:07:08.914Z,50.80
2019-05-14T08:09:38.933Z,52.00
2019-05-14T08:12:09.180Z,49.70
2019-05-14T08:14:45.261Z,48.70
2019-05-14T08:17:08.612Z,50.60
2019-05-14T08:19:38.573Z,49.10
2019-05-14T08:22:09.425Z,49.70
2019-05-14T08:24:38.532Z,49.40
2019-05-14T08:27:08.560Z,47.70
2019-05-14T08:29:39.945Z,50.20
2019-05-14T08:32:08.776Z,47.30
2019-05-14T08:34:38.966Z,47.70
2019-05-14T08:37:08.282Z,47.40
2019-05-14T08:39:39.173Z,47.00
2019-05-14T08:42:08.541Z,49.30
2019-05-14T08:44:38.975Z,47.30
2019-05-14T08:47:09.537Z,48.00
2019-05-14T08:49:45.993Z,46.90
2019-05-14T08:52:08.962Z,47.90
2019-05-14T08:54:39.077Z,47.90
2019-05-14T08:57:09.827Z,47.50
2019-05-14T08:59:39.541Z,45.30
2019-05-14T09:02:10.685Z,46.80
2019-05-14T09:04:42.745Z,45.50
2019-05-14T09:07:09.508Z,48.10
2019-05-14T09:09:38.339Z,48.80
2019-05-14T09:12:12.150Z,51.00
2019-05-14T09:14:38.840Z,49.90
2019-05-14T09:17:09.921Z,44.60
2019-05-14T09:19:39.435Z,43.90
2019-05-14T09:22:09.641Z,45.90
2019-05-14T09:24:38.733Z,45.40
2019-05-14T09:27:08.451Z,43.60
2019-05-14T09:29:39.312Z,45.60
2019-05-14T09:32:09.608Z,46.30
2019-05-14T09:34:39.329Z,45.80
2019-05-14T09:37:08.590Z,44.80
2019-05-14T09:39:38.604Z,42.60
2019-05-14T09:42:08.133Z,41.50
2019-05-14T09:44:38.726Z,44.20
2019-05-14T09:47:08.482Z,43.20
2019-05-14T09:49:38.927Z,43.00
2019-05-14T09:52:08.986Z,44.40
2019-05-14T09:54:41.475Z,43.10
2019-05-14T09:57:08.290Z,43.40
2019-05-14T09:59:38.499Z,42.70
2019-05-14T10:02:09.238Z,45.20
2019-05-14T10:04:39.277Z,44.30
2019-05-14T10:07:08.772Z,43.70
2019-05-14T10:09:39.007Z,42.20
2019-05-14T10:12:08.900Z,42.00
2019-05-14T10:14:39.413Z,42.00
2019-05-14T10:17:08.028Z,44.80
2019-05-14T10:19:39.247Z,45.90
2019-05-14T10:22:08.282Z,45.10
2019-05-14T10:24:38.606Z,46.80
2019-05-14T10:27:09.074Z,44.00
2019-05-14T10:29:39.143Z,47.10
2019-05-14T10:32:08.754Z,45.10
2019-05-14T10:34:37.459Z,44.30
2019-05-14T10:37:08.371Z,44.30
2019-05-14T10:39:38.889Z,43.40
2019-05-14T10:42:08.333Z,45.10
2019-05-14T10:44:38.783Z,42.40
2019-05-14T10:47:08.990Z,40.40
2019-05-14T10:49:38.689Z,41.10
2019-05-14T10:52:08.250Z,44.30
2019-05-14T10:54:40.221Z,42.10
2019-05-14T10:57:09.672Z,42.60
2019-05-14T10:59:37.543Z,41.60
2019-05-14T11:02:06.105Z,43.00
2019-05-14T11:04:34.808Z,42.40
2019-05-14T11:07:03.232Z,38.90
2019-05-14T11:09:31.710Z,39.50
2019-05-14T11:12:00.138Z,41.20
2019-05-14T11:14:31.675Z,40.80
2019-05-14T11:16:59.194Z,40.90
2019-05-14T11:19:28.205Z,39.50
2019-05-14T11:21:57.958Z,40.20
2019-05-14T11:24:29.301Z,43.40
2019-05-14T11:26:58.886Z,41.70
2019-05-14T11:29:29.627Z,38.10
2019-05-14T11:31:57.934Z,40.80
2019-05-14T11:34:28.652Z,41.50
2019-05-14T11:36:58.739Z,39.80
2019-05-14T11:39:28.742Z,41.90
2019-05-14T11:41:59.111Z,38.70
2019-05-14T11:44:28.551Z,40.70
2019-05-14T11:46:59.242Z,39.00
2019-05-14T11:49:27.449Z,40.10
2019-05-14T11:52:04.107Z,37.20
2019-05-14T11:54:26.107Z,39.70
2019-05-14T11:56:54.503Z,38.40
2019-05-14T11:59:22.940Z,38.10
2019-05-14T12:01:54.839Z,38.10
2019-05-14T12:04:21.596Z,37.40
2019-05-14T12:06:50.075Z,37.70
2019-05-14T12:09:18.909Z,38.50
2019-05-14T12:11:47.526Z,37.70
2019-05-14T12:14:15.964Z,38.60
2019-05-14T12:16:44.383Z,39.30
2019-05-14T12:19:12.893Z,39.00
2019-05-14T12:21:57.457Z,39.80
2019-05-14T12:24:13.685Z,38.80
2019-05-14T12:26:41.653Z,36.20
2019-05-14T12:29:10.269Z,38.50
2019-05-14T12:31:38.941Z,36.30
2019-05-14T12:34:07.368Z,37.90
2019-05-14T12:36:38.640Z,38.30
2019-05-14T12:39:09.704Z,39.40
2019-05-14T12:41:38.724Z,39.70
2019-05-14T12:44:09.253Z,38.20
2019-05-14T12:46:37.301Z,37.30
2019-05-14T12:49:05.725Z,36.00
2019-05-14T12:51:38.126Z,37.40
2019-05-14T12:54:04.396Z,38.20
2019-05-14T12:56:32.882Z,37.00
2019-05-14T12:59:01.325Z,38.10
2019-05-14T13:01:29.745Z,36.50
2019-05-14T13:03:59.207Z,35.60
2019-05-14T13:06:29.339Z,37.70
2019-05-14T13:08:58.647Z,36.00
2019-05-14T13:11:27.437Z,35.30
2019-05-14T13:13:58.352Z,33.90
2019-05-14T13:16:28.329Z,35.80
2019-05-14T13:18:56.276Z,35.60
2019-05-14T13:21:24.697Z,36.80
2019-05-14T13:23:53.533Z,37.90
2019-05-14T13:26:22.003Z,38.40
2019-05-14T13:28:51.143Z,36.80
2019-05-14T13:31:19.910Z,36.20
2019-05-14T13:33:49.009Z,35.40
2019-05-14T13:36:20.282Z,35.40
2019-05-14T13:38:49.079Z,36.00
2019-05-14T13:41:19.232Z,36.10
2019-05-14T13:43:50.376Z,36.20
2019-05-14T13:46:19.008Z,35.40
2019-05-14T13:48:49.995Z,37.20
2019-05-14T13:51:19.525Z,37.10
2019-05-14T13:53:49.966Z,36.30
2019-05-14T13:56:18.883Z,34.50
2019-05-14T13:58:48.901Z,34.90
2019-05-14T14:01:19.385Z,36.10
2019-05-14T14:04:01.798Z,37.10
2019-05-14T14:06:20.650Z,38.40
2019-05-14T14:08:48.888Z,38.60
2019-05-14T14:11:19.431Z,36.70
2019-05-14T14:13:48.968Z,38.20
2019-05-14T14:16:19.642Z,37.40
2019-05-14T14:18:50.095Z,37.60
2019-05-14T14:21:19.748Z,36.80
2019-05-14T14:23:49.496Z,36.40
2019-05-14T14:26:18.669Z,36.70
2019-05-14T14:28:49.327Z,37.70
2019-05-14T14:31:18.937Z,36.50
2019-05-14T14:33:48.682Z,36.40
2019-05-14T14:36:19.888Z,35.70
2019-05-14T14:38:49.472Z,36.50
2019-05-14T14:41:19.402Z,35.90
2019-05-14T14:43:53.937Z,36.60
2019-05-14T14:46:19.498Z,35.10
2019-05-14T14:48:49.405Z,37.20
2019-05-14T14:51:19.192Z,35.00
2019-05-14T14:53:58.962Z,36.50
2019-05-14T14:56:18.888Z,34.20
2019-05-14T14:58:49.291Z,35.40
2019-05-14T15:01:19.325Z,35.50
2019-05-14T15:03:49.728Z,35.90
2019-05-14T15:06:18.264Z,36.00
2019-05-14T15:08:49.384Z,35.60
2019-05-14T15:11:16.899Z,37.10
2019-05-14T15:13:45.320Z,39.20
2019-05-14T15:16:14.218Z,39.10
2019-05-14T15:18:42.771Z,38.40
2019-05-14T15:21:11.252Z,38.00
2019-05-14T15:23:43.184Z,39.00
2019-05-14T15:26:11.933Z,39.50
2019-05-14T15:28:40.049Z,38.70
2019-05-14T15:31:08.978Z,39.20
2019-05-14T15:33:37.613Z,37.50
2019-05-14T15:36:08.831Z,37.30
2019-05-14T15:38:36.198Z,40.00
2019-05-14T15:41:04.625Z,41.30
2019-05-14T15:43:33.130Z,38.40
2019-05-14T15:46:01.561Z,36.50
2019-05-14T15:48:30.002Z,35.50
2019-05-14T15:50:59.989Z,34.00
2019-05-14T15:53:29.099Z,36.50
2019-05-14T15:55:57.607Z,36.80
2019-05-14T15:58:26.019Z,36.90
2019-05-14T16:00:54.467Z,39.00
2019-05-14T16:03:22.936Z,37.30
2019-05-14T16:05:51.462Z,42.90
2019-05-14T16:08:22.919Z,40.90
2019-05-14T16:10:50.084Z,42.80
2019-05-14T16:13:20.875Z,41.70
2019-05-14T16:15:48.701Z,40.70
2019-05-14T16:18:19.756Z,40.00
2019-05-14T16:20:49.809Z,38.10
2019-05-14T16:23:18.783Z,38.60
2019-05-14T16:25:48.355Z,38.60
2019-05-14T16:28:19.342Z,37.20
2019-05-14T16:30:49.719Z,38.80
2019-05-14T16:33:18.622Z,37.10
2019-05-14T16:35:48.573Z,37.20
2019-05-14T16:38:17.133Z,37.80
2019-05-14T16:40:45.573Z,38.60
2019-05-14T16:43:13.985Z,38.30
2019-05-14T16:45:42.434Z,37.30
2019-05-14T16:48:11.239Z,37.80
2019-05-14T16:50:39.755Z,37.50
2019-05-14T16:53:11.578Z,38.90
2019-05-14T16:55:38.536Z,37.20
2019-05-14T16:58:08.982Z,36.30
2019-05-14T17:00:37.193Z,38.70
2019-05-14T17:03:08.149Z,38.40
2019-05-14T17:05:38.052Z,38.40
2019-05-14T17:08:05.913Z,38.40
2019-05-14T17:10:34.356Z,39.70
2019-05-14T17:13:02.797Z,39.90
2019-05-14T17:15:31.272Z,41.70
2019-05-14T17:17:59.979Z,40.30
2019-05-14T17:20:28.418Z,40.80
2019-05-14T17:22:59.247Z,40.00
2019-05-14T17:25:30.367Z,39.40
2019-05-14T17:27:59.349Z,39.10
2019-05-14T17:30:29.084Z,40.40
2019-05-14T17:32:58.877Z,40.00
2019-05-14T17:35:29.815Z,40.90
2019-05-14T17:37:58.766Z,42.10
2019-05-14T17:40:27.403Z,42.00
2019-05-14T17:42:55.831Z,41.90
2019-05-14T17:45:24.251Z,45.70
2019-05-14T17:47:52.693Z,43.70
2019-05-14T17:50:21.131Z,44.50
2019-05-14T17:52:56.450Z,42.50
2019-05-14T17:55:19.854Z,43.70
2019-05-14T17:57:56.741Z,39.80
2019-05-14T18:00:18.575Z,40.60
2019-05-14T18:02:48.592Z,43.20
2019-05-14T18:05:18.762Z,40.90
2019-05-14T18:07:48.276Z,42.80
2019-05-14T18:10:19.470Z,42.90
2019-05-14T18:12:48.276Z,42.70
2019-05-14T18:15:17.003Z,40.70
2019-05-14T18:17:45.460Z,40.10
2019-05-14T18:20:14.275Z,41.60
2019-05-14T18:22:42.732Z,41.10
2019-05-14T18:25:11.426Z,43.50
2019-05-14T18:27:39.888Z,42.50
2019-05-14T18:30:09.501Z,41.70
2019-05-14T18:32:38.133Z,42.90
2019-05-14T18:35:07.007Z,43.10
2019-05-14T18:37:35.446Z,43.50
2019-05-14T18:40:09.092Z,46.10
2019-05-14T18:42:39.082Z,48.70
2019-05-14T18:45:08.745Z,50.10
2019-05-14T18:47:39.886Z,48.90
2019-05-14T18:50:09.025Z,50.60
2019-05-14T18:52:40.186Z,52.40
2019-05-14T18:55:09.234Z,52.40
2019-05-14T18:57:38.272Z,52.80
2019-05-14T19:00:09.512Z,53.00
2019-05-14T19:02:39.218Z,54.20
2019-05-14T19:05:08.825Z,54.60
2019-05-14T19:07:39.509Z,55.20
2019-05-14T19:10:09.302Z,56.10
2019-05-14T19:12:38.768Z,57.30
2019-05-14T19:15:08.838Z,54.50
2019-05-14T19:17:38.512Z,51.70
2019-05-14T19:20:08.452Z,52.60
2019-05-14T19:22:39.632Z,50.80
2019-05-14T19:25:08.161Z,50.60
2019-05-14T19:27:38.039Z,49.60
2019-05-14T19:30:08.473Z,49.00
2019-05-14T19:32:39.266Z,50.50
2019-05-14T19:35:08.586Z,49.20
2019-05-14T19:37:39.018Z,49.30
2019-05-14T19:40:09.185Z,52.30
2019-05-14T19:42:38.999Z,51.70
2019-05-14T19:45:08.502Z,52.00
2019-05-14T19:47:39.778Z,50.50
2019-05-14T19:50:08.911Z,51.10
2019-05-14T19:52:39.151Z,48.10
2019-05-14T19:55:07.997Z,48.70
2019-05-14T19:57:38.370Z,49.10
2019-05-14T20:00:09.172Z,49.90
2019-05-14T20:02:37.718Z,48.00
2019-05-14T20:05:09.117Z,47.60
2019-05-14T20:07:38.662Z,49.30
2019-05-14T20:10:08.605Z,52.90
2019-05-14T20:12:39.276Z,52.50
2019-05-14T20:15:09.405Z,53.40
2019-05-14T20:17:38.387Z,54.00
2019-05-14T20:20:09.073Z,56.80
2019-05-14T20:22:39.336Z,51.90
2019-05-14T20:25:08.313Z,54.10
2019-05-14T20:27:38.953Z,56.10
2019-05-14T20:30:10.794Z,58.30
2019-05-14T20:32:39.496Z,59.10
2019-05-14T20:35:09.450Z,59.60
2019-05-14T20:37:38.708Z,61.00
2019-05-14T20:40:08.340Z,62.30
2019-05-14T20:42:39.290Z,63.40
2019-05-14T20:45:07.747Z,64.50
2019-05-14T20:47:38.695Z,65.60
2019-05-14T20:50:08.832Z,66.20
2019-05-14T20:52:37.047Z,67.30
2019-05-14T20:55:09.602Z,66.90
2019-05-14T20:57:38.798Z,66.40
2019-05-14T21:00:11.388Z,68.00
2019-05-14T21:02:39.637Z,69.40
2019-05-14T21:05:13.524Z,71.70
2019-05-14T21:07:39.166Z,73.10
2019-05-14T21:10:08.778Z,74.70
2019-05-14T21:12:39.347Z,76.40
2019-05-14T21:15:08.950Z,77.50
2019-05-14T21:17:38.172Z,79.60
2019-05-14T21:20:09.092Z,82.20
2019-05-14T21:22:40.232Z,82.40
2019-05-14T21:25:11.395Z,85.20
2019-05-14T21:27:44.905Z,84.80
2019-05-14T21:30:09.452Z,85.30
2019-05-14T21:32:39.184Z,84.90
2019-05-14T21:35:08.283Z,84.00
2019-05-14T21:37:39.011Z,85.10
2019-05-14T21:40:09.239Z,86.20
2019-05-14T21:42:38.679Z,88.00
2019-05-14T21:45:09.900Z,88.50
2019-05-14T21:47:38.923Z,85.70
2019-05-14T21:50:08.913Z,85.90
2019-05-14T21:52:41.821Z,86.40
2019-05-14T21:55:08.243Z,85.10
2019-05-14T21:57:38.231Z,86.90
2019-05-14T22:00:10.400Z,90.10
2019-05-14T22:02:39.065Z,90.20
2019-05-14T22:05:09.517Z,91.00
2019-05-14T22:07:38.940Z,90.90
2019-05-14T22:10:08.154Z,90.40
2019-05-14T22:12:39.252Z,91.50
2019-05-14T22:15:08.537Z,91.80
2019-05-14T22:17:38.195Z,92.50
2019-05-14T22:20:08.266Z,93.90
2019-05-14T22:22:39.041Z,95.40
2019-05-14T22:25:07.429Z,96.40
2019-05-14T22:27:35.846Z,97.20
2019-05-14T22:30:08.422Z,98.80
2019-05-14T22:32:38.350Z,99.00
2019-05-14T22:35:10.209Z,97.70
2019-05-14T22:37:39.195Z,96.70
2019-05-14T22:40:08.370Z,93.20
2019-05-14T22:42:39.079Z,93.00
2019-05-14T22:45:09.400Z,91.10
2019-05-14T22:47:40.292Z,90.10
2019-05-14T22:50:09.321Z,88.00
2019-05-14T22:52:38.662Z,87.10
2019-05-14T22:55:07.725Z,87.10
2019-05-14T22:57:38.914Z,86.20
2019-05-14T23:00:10.436Z,85.80
2019-05-14T23:02:38.857Z,84.50
2019-05-14T23:05:08.456Z,84.50
2019-05-14T23:07:38.346Z,83.70
2019-05-14T23:10:08.983Z,83.80
2019-05-14T23:12:38.458Z,83.30
2019-05-14T23:15:08.293Z,84.00
2019-05-14T23:17:38.862Z,84.90
2019-05-14T23:20:09.076Z,83.20
2019-05-14T23:22:39.007Z,83.30
2019-05-14T23:25:08.906Z,84.50
2019-05-14T23:27:39.001Z,84.90
2019-05-14T23:30:08.842Z,82.80
2019-05-14T23:32:38.570Z,83.30
2019-05-14T23:35:08.192Z,85.00
2019-05-14T23:37:36.696Z,83.80
2019-05-14T23:40:08.394Z,83.60
2019-05-14T23:42:39.009Z,84.40
2019-05-14T23:45:08.190Z,84.20
2019-05-14T23:47:38.253Z,84.60
2019-05-14T23:50:08.150Z,85.30
2019-05-14T23:52:38.724Z,85.90
2019-05-14T23:55:08.986Z,85.50
2019-05-14T23:57:37.465Z,85.40
